Time,TemperatureF,DewpointF,PressureIn,WindDirection,WindDirectionDegrees,WindSpeedMPH,WindSpeedGustMPH,Humidity,HourlyPrecipIn,Conditions,Clouds,dailyrainin,SoftwareType,DateUTC
2013-03-21 00:00:00,34.8,25.3,29.82,NW,315,6.0,8.0,68,0.00,CLR,,0.00,WeatherDisplay:10.37,2013-03-21 04:00:00,
2013-03-21 00:05:00,34.6,25.1,29.82,WNW,302,4.6,4.6,68,0.00,CLR,,0.00,WeatherDisplay:10.37,2013-03-21 04:05:00,
2013-03-21 00:10:00,34.5,25.4,29.82,NW,317,4.5,6.9,69,0.00,CLR,,0.00,WeatherDisplay:10.37,2013-03-21 04:10:00,
2013-03-21 00:15:00,34.3,25.5,29.82,NW,321,6.3,8.1,70,0.00,CLR,,0.00,WeatherDisplay:10.37,2013-03-21 04:15:00,
2013-03-21 00:20:00,34.2,25.4,29.82,NNW,337,4.6,5.8,70,0.00,CLR,,0.00,WeatherDisplay:10.37,2013-03-21 04:20:00,
2013-03-21 00:25:00,34.1,25.7,29.82,NNW,334,4.1,6.9,71,0.00,CLR,,0.00,WeatherDisplay:10.37,2013-03-21 04:25:00,
2013-03-21 00:31:00,34.0,25.9,29.82,North,360,3.5,5.8,72,0.00,CLR,,0.00,WeatherDisplay:10.37,2013-03-21 04:31:00,
2013-03-21 00:36:00,33.8,26.4,29.83,NNW,344,4.3,5.8,74,0.00,CLR,,0.00,WeatherDisplay:10.37,2013-03-21 04:36:00,
2013-03-21 00:41:00,33.6,26.5,29.83,North,355,2.9,5.8,75,0.00,CLR,,0.00,WeatherDisplay:10.37,2013-03-21 04:41:00,
2013-03-21 00:46:00,33.5,26.7,29.83,North,355,1.8,3.5,76,0.00,CLR,,0.00,WeatherDisplay:10.37,2013-03-21 04:46:00,
2013-03-21 00:51:00,33.3,26.5,29.83,NE,43,1.7,3.5,76,0.00,CLR,,0.00,WeatherDisplay:10.37,2013-03-21 04:51:00,
2013-03-21 00:56:00,33.2,26.8,29.83,NE,41,2.3,3.5,77,0.00,CLR,,0.00,WeatherDisplay:10.37,2013-03-21 04:56:00,
2013-03-21 01:01:00,33.2,26.8,29.83,ENE,59,1.8,3.0,77,0.00,CLR,,0.00,WeatherDisplay:10.37,2013-03-21 05:01:00,
2013-03-21 01:06:00,33.1,27.0,29.82,NE,49,1.0,3.5,78,0.00,CLR,,0.00,WeatherDisplay:10.37,2013-03-21 05:06:00,
2013-03-21 01:11:00,32.9,27.4,29.82,NE,38,2.1,3.5,80,0.00,CLR,,0.00,WeatherDisplay:10.37,2013-03-21 05:11:00,
2013-03-21 01:16:00,32.7,27.8,29.81,ENE,71,2.4,3.5,82,0.00,CLR,,0.00,WeatherDisplay:10.37,2013-03-21 05:16:00,
2013-03-21 01:21:00,32.5,27.6,29.82,NE,34,0.8,3.5,82,0.00,CLR,,0.00,WeatherDisplay:10.37,2013-03-21 05:21:00,
2013-03-21 01:26:00,32.3,27.7,29.82,NE,40,2.3,3.5,83,0.00,CLR,,0.00,WeatherDisplay:10.37,2013-03-21 05:26:00,
2013-03-21 01:31:00,32.1,27.8,29.81,NE,38,1.9,3.5,84,0.00,CLR,,0.00,WeatherDisplay:10.37,2013-03-21 05:31:00,
2013-03-21 01:36:00,31.9,27.6,29.82,NNE,22,1.8,3.5,84,0.00,CLR,,0.00,WeatherDisplay:10.37,2013-03-21 05:36:00,
2013-03-21 01:41:00,31.9,27.9,29.82,NNE,24,1.8,3.5,85,0.00,CLR,,0.00,WeatherDisplay:10.37,2013-03-21 05:41:00,
2013-03-21 01:46:00,31.7,27.7,29.82,NNE,23,1.8,2.3,85,0.00,CLR,,0.00,WeatherDisplay:10.37,2013-03-21 05:46:00,
2013-03-21 01:51:00,31.7,28.0,29.82,North,360,1.4,3.5,86,0.00,CLR,,0.00,WeatherDisplay:10.37,2013-03-21 05:51:00,
2013-03-21 01:56:00,31.6,27.9,29.82,North,360,2.1,2.1,86,0.00,CLR,,0.00,WeatherDisplay:10.37,2013-03-21 05:56:00,
2013-03-21 02:01:00,31.5,28.1,29.81,North,360,1.2,2.3,87,0.00,CLR,,0.00,WeatherDisplay:10.37,2013-03-21 06:01:00,
2013-03-21 02:06:00,31.5,28.1,29.82,North,360,0.1,0.0,87,0.00,CLR,,0.00,WeatherDisplay:10.37,2013-03-21 06:06:00,
2013-03-21 02:11:00,31.4,28.3,29.82,North,360,0.3,1.1,88,0.00,CLR,,0.00,WeatherDisplay:10.37,2013-03-21 06:11:00,
2013-03-21 02:16:00,31.4,28.3,29.81,North,360,0.5,2.3,88,0.00,CLR,,0.00,WeatherDisplay:10.37,2013-03-21 06:16:00,
2013-03-21 02:21:00,31.4,28.5,29.81,North,360,0.3,1.1,89,0.00,CLR,,0.00,WeatherDisplay:10.37,2013-03-21 06:21:00,
2013-03-21 02:26:00,31.3,28.4,29.81,North,360,0.0,1.1,89,0.00,CLR,,0.00,WeatherDisplay:10.37,2013-03-21 06:26:00,
2013-03-21 02:31:00,31.2,28.6,29.81,North,9,1.1,2.3,90,0.00,CLR,,0.00,WeatherDisplay:10.37,2013-03-21 06:31:00,
2013-03-21 02:36:00,31.0,28.4,29.81,North,9,0.5,2.0,90,0.00,CLR,,0.00,WeatherDisplay:10.37,2013-03-21 06:36:00,
2013-03-21 02:41:00,30.9,28.3,29.81,North,9,0.6,2.3,90,0.00,CLR,,0.00,WeatherDisplay:10.37,2013-03-21 06:41:00,
2013-03-21 02:47:00,30.9,28.0,29.81,North,9,0.0,2.0,90,0.00,,,0.00,weatherlink.com 1.10,2013-03-21 06:47:00,
2013-03-21 02:52:00,30.8,28.2,29.80,North,9,0.5,0.0,90,0.00,CLR,,0.00,WeatherDisplay:10.37,2013-03-21 06:52:00,
2013-03-21 02:57:00,30.7,28.1,29.80,North,9,0.0,0.0,90,0.00,CLR,,0.00,WeatherDisplay:10.37,2013-03-21 06:57:00,
2013-03-21 03:02:00,30.6,28.3,29.80,North,9,0.0,0.0,91,0.00,CLR,,0.00,WeatherDisplay:10.37,2013-03-21 07:02:00,
2013-03-21 03:07:00,30.6,28.3,29.80,North,9,0.0,0.0,91,0.00,CLR,,0.00,WeatherDisplay:10.37,2013-03-21 07:07:00,
2013-03-21 03:12:00,30.5,28.2,29.80,North,9,0.0,0.0,91,0.00,CLR,,0.00,WeatherDisplay:10.37,2013-03-21 07:12:00,
2013-03-21 03:17:00,30.5,28.0,29.79,North,9,1.0,1.0,91,0.00,,,0.00,weatherlink.com 1.10,2013-03-21 07:17:00,
2013-03-21 03:22:00,30.4,28.1,29.79,North,9,0.0,0.0,91,0.00,CLR,,0.00,WeatherDisplay:10.37,2013-03-21 07:22:00,
2013-03-21 03:27:00,30.3,28.0,29.79,North,9,0.0,0.0,91,0.00,CLR,,0.00,WeatherDisplay:10.37,2013-03-21 07:27:00,
2013-03-21 03:32:00,30.3,28.0,29.78,North,9,0.0,0.0,91,0.00,CLR,,0.00,WeatherDisplay:10.37,2013-03-21 07:32:00,
2013-03-21 03:37:00,30.2,27.9,29.78,North,9,0.0,1.1,91,0.00,CLR,,0.00,WeatherDisplay:10.37,2013-03-21 07:37:00,
2013-03-21 03:42:00,30.0,27.7,29.78,NNW,338,1.4,2.3,91,0.00,CLR,,0.00,WeatherDisplay:10.37,2013-03-21 07:42:00,
2013-03-21 03:47:00,29.8,25.8,29.78,NNW,333,4.7,5.8,85,0.00,CLR,,0.00,WeatherDisplay:10.37,2013-03-21 07:47:00,
2013-03-21 03:52:00,29.8,25.6,29.78,NW,317,2.7,4.6,84,0.00,CLR,,0.00,WeatherDisplay:10.37,2013-03-21 07:52:00,
2013-03-21 03:57:00,29.9,25.4,29.78,NNW,345,3.4,5.8,83,0.00,CLR,,0.00,WeatherDisplay:10.37,2013-03-21 07:57:00,
2013-03-21 04:02:00,30.0,25.2,29.78,NNW,346,4.7,6.9,82,0.00,CLR,,0.00,WeatherDisplay:10.37,2013-03-21 08:02:00,
2013-03-21 04:07:00,30.1,25.0,29.78,North,5,3.8,6.9,81,0.00,CLR,,0.00,WeatherDisplay:10.37,2013-03-21 08:07:00,
2013-03-21 04:12:00,30.1,25.0,29.77,North,349,4.3,5.0,81,0.00,CLR,,0.00,WeatherDisplay:10.37,2013-03-21 08:12:00,
2013-03-21 04:17:00,30.2,25.1,29.77,NNW,348,5.6,6.9,81,0.00,CLR,,0.00,WeatherDisplay:10.37,2013-03-21 08:17:00,
2013-03-21 04:22:00,30.2,24.8,29.77,NNW,338,4.8,5.8,80,0.00,CLR,,0.00,WeatherDisplay:10.37,2013-03-21 08:22:00,
2013-03-21 04:27:00,30.2,24.8,29.77,North,355,4.2,4.6,80,0.00,CLR,,0.00,WeatherDisplay:10.37,2013-03-21 08:27:00,
2013-03-21 04:32:00,30.1,24.4,29.77,NW,318,4.5,6.9,79,0.00,CLR,,0.00,WeatherDisplay:10.37,2013-03-21 08:32:00,
2013-03-21 04:37:00,30.1,24.1,29.77,North,11,8.0,11.5,78,0.00,CLR,,0.00,WeatherDisplay:10.37,2013-03-21 08:37:00,
2013-03-21 04:42:00,30.0,24.3,29.76,North,355,9.6,11.5,79,0.00,CLR,,0.00,WeatherDisplay:10.37,2013-03-21 08:42:00,
2013-03-21 04:47:00,29.9,24.2,29.76,NNW,348,9.2,11.5,79,0.00,CLR,,0.00,WeatherDisplay:10.37,2013-03-21 08:47:00,
2013-03-21 04:52:00,29.7,23.7,29.76,NW,323,6.6,8.1,78,0.00,CLR,,0.00,WeatherDisplay:10.37,2013-03-21 08:52:00,
2013-03-21 04:57:00,29.7,23.1,29.76,NW,324,7.8,11.5,76,0.00,CLR,,0.00,WeatherDisplay:10.37,2013-03-21 08:57:00,
2013-03-21 05:02:00,29.6,23.0,29.76,NNW,348,5.7,8.1,76,0.00,CLR,,0.00,WeatherDisplay:10.37,2013-03-21 09:02:00,
2013-03-21 05:07:00,29.5,22.2,29.76,NNW,345,6.4,9.2,74,0.00,CLR,,0.00,WeatherDisplay:10.37,2013-03-21 09:07:00,
2013-03-21 05:12:00,29.5,22.2,29.76,North,355,7.5,9.2,74,0.00,CLR,,0.00,WeatherDisplay:10.37,2013-03-21 09:12:00,
2013-03-21 05:17:00,29.4,22.1,29.76,NNW,348,4.9,8.1,74,0.00,CLR,,0.00,WeatherDisplay:10.37,2013-03-21 09:17:00,
2013-03-21 05:22:00,29.3,22.0,29.76,NNW,328,6.4,9.2,74,0.00,CLR,,0.00,WeatherDisplay:10.37,2013-03-21 09:22:00,
2013-03-21 05:27:00,29.3,22.0,29.77,NNW,348,5.6,8.1,74,0.00,CLR,,0.00,WeatherDisplay:10.37,2013-03-21 09:27:00,
2013-03-21 05:32:00,29.2,21.9,29.77,NNW,344,5.6,5.8,74,0.00,CLR,,0.00,WeatherDisplay:10.37,2013-03-21 09:32:00,
2013-03-21 05:37:00,29.2,21.6,29.77,NW,326,4.8,5.8,73,0.00,CLR,,0.00,WeatherDisplay:10.37,2013-03-21 09:37:00,
2013-03-21 05:42:00,29.2,21.6,29.77,NNW,338,4.3,5.8,73,0.00,CLR,,0.00,WeatherDisplay:10.37,2013-03-21 09:42:00,
2013-03-21 05:47:00,29.1,21.5,29.77,North,5,5.0,5.8,73,0.00,CLR,,0.00,WeatherDisplay:10.37,2013-03-21 09:47:00,
2013-03-21 05:52:00,29.1,21.5,29.77,NNW,347,3.7,6.9,73,0.00,CLR,,0.00,WeatherDisplay:10.37,2013-03-21 09:52:00,
2013-03-21 05:57:00,29.1,21.8,29.77,North,349,3.3,3.5,74,0.00,CLR,,0.00,WeatherDisplay:10.37,2013-03-21 09:57:00,
2013-03-21 06:02:00,29.0,21.4,29.77,NNW,342,3.9,5.8,73,0.00,CLR,,0.00,WeatherDisplay:10.37,2013-03-21 10:02:00,
2013-03-21 06:07:00,29.0,21.7,29.77,NNW,336,2.8,5.0,74,0.00,CLR,,0.00,WeatherDisplay:10.37,2013-03-21 10:07:00,
2013-03-21 06:12:00,29.0,21.7,29.77,NNW,347,3.6,4.6,74,0.00,CLR,,0.00,WeatherDisplay:10.37,2013-03-21 10:12:00,
2013-03-21 06:17:00,28.9,21.7,29.77,NNW,338,4.3,4.6,74,0.00,CLR,,0.00,WeatherDisplay:10.37,2013-03-21 10:17:00,
2013-03-21 06:22:00,28.9,21.3,29.77,NNE,13,4.9,6.9,73,0.00,CLR,,0.00,WeatherDisplay:10.37,2013-03-21 10:22:00,
2013-03-21 06:27:00,28.9,21.0,29.77,North,5,4.6,6.9,72,0.00,CLR,,0.00,WeatherDisplay:10.37,2013-03-21 10:27:00,
2013-03-21 06:32:00,29.0,21.7,29.77,North,5,6.6,8.1,74,0.00,CLR,,0.00,WeatherDisplay:10.37,2013-03-21 10:32:00,
2013-03-21 06:37:00,28.9,21.3,29.77,North,355,3.9,6.0,73,0.00,CLR,,0.00,WeatherDisplay:10.37,2013-03-21 10:37:00,
2013-03-21 06:42:00,28.9,21.3,29.77,North,360,5.8,9.2,73,0.00,CLR,,0.00,WeatherDisplay:10.37,2013-03-21 10:42:00,
2013-03-21 06:47:00,28.9,21.3,29.77,NNW,330,4.9,5.8,73,0.00,CLR,,0.00,WeatherDisplay:10.37,2013-03-21 10:47:00,
2013-03-21 06:52:00,28.9,21.0,29.77,North,360,6.6,9.2,72,0.00,CLR,,0.00,WeatherDisplay:10.37,2013-03-21 10:52:00,
2013-03-21 06:57:00,28.8,20.6,29.77,NNW,339,5.8,9.2,71,0.00,CLR,,0.00,WeatherDisplay:10.37,2013-03-21 10:57:00,
2013-03-21 07:02:00,28.8,20.6,29.77,NNW,342,6.4,6.9,71,0.00,CLR,,0.00,WeatherDisplay:10.37,2013-03-21 11:02:00,
2013-03-21 07:07:00,28.7,20.1,29.77,NNW,336,6.2,9.2,70,0.00,CLR,,0.00,WeatherDisplay:10.37,2013-03-21 11:07:00,
2013-03-21 07:12:00,28.7,20.1,29.77,NNE,13,7.7,11.5,70,0.00,CLR,,0.00,WeatherDisplay:10.37,2013-03-21 11:12:00,
2013-03-21 07:17:00,28.6,19.4,29.77,North,355,5.2,8.1,68,0.00,CLR,,0.00,WeatherDisplay:10.37,2013-03-21 11:17:00,
2013-03-21 07:22:00,28.7,20.1,29.77,NW,319,5.5,5.8,70,0.00,CLR,,0.00,WeatherDisplay:10.37,2013-03-21 11:22:00,
2013-03-21 07:27:00,28.7,20.1,29.77,NNW,348,4.8,5.8,70,0.00,CLR,,0.00,WeatherDisplay:10.37,2013-03-21 11:27:00,
2013-03-21 07:32:00,28.6,19.4,29.77,North,5,6.0,9.2,68,0.00,CLR,,0.00,WeatherDisplay:10.37,2013-03-21 11:32:00,
2013-03-21 07:37:00,28.6,19.4,29.77,NNW,342,6.7,9.2,68,0.00,CLR,,0.00,WeatherDisplay:10.37,2013-03-21 11:37:00,
2013-03-21 07:42:00,28.6,19.4,29.77,North,349,5.1,5.8,68,0.00,CLR,,0.00,WeatherDisplay:10.37,2013-03-21 11:42:00,
2013-03-21 07:47:00,28.6,19.0,29.77,NNW,333,3.4,5.8,67,0.00,CLR,,0.00,WeatherDisplay:10.37,2013-03-21 11:47:00,
2013-03-21 07:53:00,28.7,18.8,29.77,North,355,6.1,6.9,66,0.00,CLR,,0.00,WeatherDisplay:10.37,2013-03-21 11:53:00,
2013-03-21 07:58:00,28.8,18.5,29.78,North,351,4.5,9.2,65,0.00,CLR,,0.00,WeatherDisplay:10.37,2013-03-21 11:58:00,
2013-03-21 08:03:00,28.9,18.2,29.78,NNW,329,6.5,8.1,64,0.00,CLR,,0.00,WeatherDisplay:10.37,2013-03-21 12:03:00,
2013-03-21 08:08:00,29.0,19.1,29.77,NNW,346,5.1,6.9,66,0.00,CLR,,0.00,WeatherDisplay:10.37,2013-03-21 12:08:00,
2013-03-21 08:13:00,29.0,18.7,29.78,NNW,336,5.7,7.0,65,0.00,CLR,,0.00,WeatherDisplay:10.37,2013-03-21 12:13:00,
2013-03-21 08:18:00,29.0,19.4,29.77,North,351,6.1,6.9,67,0.00,CLR,,0.00,WeatherDisplay:10.37,2013-03-21 12:18:00,
2013-03-21 08:23:00,29.1,18.8,29.77,North,351,5.0,6.9,65,0.00,CLR,,0.00,WeatherDisplay:10.37,2013-03-21 12:23:00,
2013-03-21 08:28:00,29.1,19.2,29.77,North,355,5.0,6.9,66,0.00,CLR,,0.00,WeatherDisplay:10.37,2013-03-21 12:28:00,
2013-03-21 08:33:00,29.1,19.2,29.77,NNW,333,4.6,5.0,66,0.00,CLR,,0.00,WeatherDisplay:10.37,2013-03-21 12:33:00,
2013-03-21 08:38:00,29.1,19.2,29.77,NW,313,5.4,6.9,66,0.00,CLR,,0.00,WeatherDisplay:10.37,2013-03-21 12:38:00,
2013-03-21 08:43:00,29.2,19.2,29.77,North,355,5.1,5.8,66,0.00,CLR,,0.00,WeatherDisplay:10.37,2013-03-21 12:43:00,
2013-03-21 08:48:00,29.3,19.0,29.76,NNW,348,7.0,8.1,65,0.00,CLR,,0.00,WeatherDisplay:10.37,2013-03-21 12:48:00,
2013-03-21 08:53:00,29.4,18.7,29.76,NE,38,4.1,8.1,64,0.00,CLR,,0.00,WeatherDisplay:10.37,2013-03-21 12:53:00,
2013-03-21 08:58:00,29.5,18.8,29.76,NNW,342,8.2,10.0,64,0.00,CLR,,0.00,WeatherDisplay:10.37,2013-03-21 12:58:00,
2013-03-21 09:03:00,29.6,18.2,29.76,NNW,346,7.4,12.7,62,0.00,CLR,,0.00,WeatherDisplay:10.37,2013-03-21 13:03:00,
2013-03-21 09:08:00,29.7,18.3,29.76,NNW,346,8.0,11.5,62,0.00,CLR,,0.00,WeatherDisplay:10.37,2013-03-21 13:08:00,
2013-03-21 09:13:00,29.9,19.2,29.76,North,349,6.9,11.5,64,0.00,CLR,,0.00,WeatherDisplay:10.37,2013-03-21 13:13:00,
2013-03-21 09:18:00,30.3,19.2,29.77,NNW,330,7.3,10.0,63,0.00,CLR,,0.00,WeatherDisplay:10.37,2013-03-21 13:18:00,
2013-03-21 09:23:00,30.2,18.0,29.77,NNW,339,7.5,9.2,60,0.00,CLR,,0.00,WeatherDisplay:10.37,2013-03-21 13:23:00,
2013-03-21 09:28:00,30.1,18.6,29.77,NE,37,4.2,6.9,62,0.00,CLR,,0.00,WeatherDisplay:10.37,2013-03-21 13:28:00,
2013-03-21 09:33:00,30.2,18.4,29.77,North,355,6.2,6.9,61,0.00,CLR,,0.00,WeatherDisplay:10.37,2013-03-21 13:33:00,
2013-03-21 09:38:00,30.1,18.3,29.77,NNW,344,7.1,9.2,61,0.00,CLR,,0.00,WeatherDisplay:10.37,2013-03-21 13:38:00,
2013-03-21 09:43:00,30.2,18.0,29.77,WNW,292,4.7,9.0,60,0.00,CLR,,0.00,WeatherDisplay:10.37,2013-03-21 13:43:00,
2013-03-21 09:48:00,30.1,17.9,29.77,NNW,327,7.8,8.1,60,0.00,CLR,,0.00,WeatherDisplay:10.37,2013-03-21 13:48:00,
2013-03-21 09:53:00,30.3,17.3,29.77,NW,313,7.3,8.1,58,0.00,CLR,,0.00,WeatherDisplay:10.37,2013-03-21 13:53:00,
2013-03-21 09:58:00,30.5,17.9,29.76,NNW,333,7.6,10.4,59,0.00,CLR,,0.00,WeatherDisplay:10.37,2013-03-21 13:58:00,
2013-03-21 10:03:00,31.0,19.1,29.76,North,349,6.8,8.1,61,0.00,CLR,,0.00,WeatherDisplay:10.37,2013-03-21 14:03:00,
2013-03-21 10:08:00,31.3,17.8,29.76,NNW,336,5.7,8.1,57,0.00,CLR,,0.00,WeatherDisplay:10.37,2013-03-21 14:08:00,
2013-03-21 10:13:00,31.5,18.8,29.76,NW,304,8.4,11.5,59,0.00,CLR,,0.00,WeatherDisplay:10.37,2013-03-21 14:13:00,
2013-03-21 10:18:00,31.8,19.1,29.76,North,360,6.8,8.0,59,0.00,CLR,,0.00,WeatherDisplay:10.37,2013-03-21 14:18:00,
2013-03-21 10:23:00,32.6,21.0,29.76,NW,312,7.9,10.0,62,0.00,CLR,,0.00,WeatherDisplay:10.37,2013-03-21 14:23:00,
2013-03-21 10:28:00,32.5,17.7,29.76,NW,321,7.8,7.8,54,0.00,CLR,,0.00,WeatherDisplay:10.37,2013-03-21 14:28:00,
2013-03-21 10:33:00,32.4,18.8,29.75,NW,313,7.3,10.4,57,0.00,CLR,,0.00,WeatherDisplay:10.37,2013-03-21 14:33:00,
2013-03-21 10:39:00,32.6,18.2,29.75,WNW,294,6.4,11.5,55,0.00,CLR,,0.00,WeatherDisplay:10.37,2013-03-21 14:39:00,
2013-03-21 10:44:00,32.7,18.3,29.75,NNW,338,5.7,10.4,55,0.00,CLR,,0.00,WeatherDisplay:10.37,2013-03-21 14:44:00,
2013-03-21 10:49:00,33.4,18.9,29.75,NW,325,6.7,10.4,55,0.00,CLR,,0.00,WeatherDisplay:10.37,2013-03-21 14:49:00,
2013-03-21 10:54:00,33.5,20.3,29.74,NNW,338,4.9,4.9,58,0.00,CLR,,0.00,WeatherDisplay:10.37,2013-03-21 14:54:00,
2013-03-21 10:59:00,33.6,18.3,29.74,NE,36,4.7,11.5,53,0.00,CLR,,0.00,WeatherDisplay:10.37,2013-03-21 14:59:00,
2013-03-21 11:04:00,33.4,18.9,29.74,NNE,30,5.4,8.1,55,0.00,CLR,,0.00,WeatherDisplay:10.37,2013-03-21 15:04:00,
2013-03-21 11:09:00,33.4,18.9,29.74,North,355,5.0,6.9,55,0.00,CLR,,0.00,WeatherDisplay:10.37,2013-03-21 15:09:00,
2013-03-21 11:14:00,33.9,19.8,29.74,NNW,343,9.0,12.7,56,0.00,CLR,,0.00,WeatherDisplay:10.37,2013-03-21 15:14:00,
2013-03-21 11:19:00,34.3,18.5,29.74,NNW,330,5.6,8.1,52,0.00,CLR,,0.00,WeatherDisplay:10.37,2013-03-21 15:19:00,
2013-03-21 11:24:00,34.7,20.2,29.74,NNW,346,6.9,9.2,55,0.00,CLR,,0.00,WeatherDisplay:10.37,2013-03-21 15:24:00,
2013-03-21 11:29:00,34.8,18.5,29.73,NW,311,5.7,8.1,51,0.00,CLR,,0.00,WeatherDisplay:10.37,2013-03-21 15:29:00,
2013-03-21 11:34:00,34.8,18.9,29.73,NNW,336,6.7,11.5,52,0.00,CLR,,0.00,WeatherDisplay:10.37,2013-03-21 15:34:00,
2013-03-21 11:39:00,34.8,19.4,29.73,North,5,6.0,9.2,53,0.00,CLR,,0.00,WeatherDisplay:10.37,2013-03-21 15:39:00,
2013-03-21 11:44:00,34.9,19.5,29.73,NW,325,5.4,8.0,53,0.00,CLR,,0.00,WeatherDisplay:10.37,2013-03-21 15:44:00,
2013-03-21 11:49:00,34.8,18.9,29.73,NW,323,7.1,9.2,52,0.00,CLR,,0.00,WeatherDisplay:10.37,2013-03-21 15:49:00,
2013-03-21 11:54:00,35.0,18.2,29.73,NNE,23,5.0,10.4,50,0.00,CLR,,0.00,WeatherDisplay:10.37,2013-03-21 15:54:00,
2013-03-21 11:59:00,35.1,19.2,29.73,NNW,329,7.1,9.2,52,0.00,CLR,,0.00,WeatherDisplay:10.37,2013-03-21 15:59:00,
2013-03-21 12:04:00,35.3,20.0,29.72,North,5,6.0,12.0,53,0.00,,,0.00,weatherlink.com 1.10,2013-03-21 16:04:00,
2013-03-21 12:09:00,35.7,19.3,29.72,NNE,22,8.1,11.5,51,0.00,CLR,,0.00,WeatherDisplay:10.37,2013-03-21 16:09:00,
2013-03-21 12:14:00,36.0,19.6,29.72,North,360,7.5,9.2,51,0.00,CLR,,0.00,WeatherDisplay:10.37,2013-03-21 16:14:00,
2013-03-21 12:19:00,36.2,19.8,29.72,NNE,17,8.0,11.5,51,0.00,CLR,,0.00,WeatherDisplay:10.37,2013-03-21 16:19:00,
2013-03-21 12:24:00,36.5,19.1,29.72,NE,40,3.3,4.6,49,0.00,CLR,,0.00,WeatherDisplay:10.37,2013-03-21 16:24:00,
2013-03-21 12:29:00,35.9,19.0,29.72,NW,322,4.4,6.9,50,0.00,CLR,,0.00,WeatherDisplay:10.37,2013-03-21 16:29:00,
2013-03-21 12:34:00,36.1,18.8,29.71,NW,322,2.9,5.8,49,0.00,CLR,,0.00,WeatherDisplay:10.37,2013-03-21 16:34:00,
2013-03-21 12:39:00,36.5,19.1,29.71,WNW,296,5.1,9.2,49,0.00,CLR,,0.00,WeatherDisplay:10.37,2013-03-21 16:39:00,
2013-03-21 12:44:00,36.4,18.1,29.71,West,275,6.9,11.5,47,0.00,CLR,,0.00,WeatherDisplay:10.37,2013-03-21 16:44:00,
2013-03-21 12:49:00,35.8,18.5,29.70,NNW,335,10.5,12.7,49,0.00,CLR,,0.00,WeatherDisplay:10.37,2013-03-21 16:49:00,
2013-03-21 12:54:00,36.4,19.5,29.70,North,355,7.6,10.4,50,0.00,CLR,,0.00,WeatherDisplay:10.37,2013-03-21 16:54:00,
2013-03-21 12:59:00,36.9,18.0,29.70,NE,46,5.7,8.1,46,0.00,CLR,,0.00,WeatherDisplay:10.37,2013-03-21 16:59:00,
2013-03-21 13:04:00,37.1,18.7,29.70,NW,320,8.9,12.7,47,0.00,CLR,,0.00,WeatherDisplay:10.37,2013-03-21 17:04:00,
2013-03-21 13:09:00,37.7,18.8,29.70,NW,306,8.6,11.5,46,0.00,CLR,,0.00,WeatherDisplay:10.37,2013-03-21 17:09:00,
2013-03-21 13:14:00,37.3,16.8,29.70,WNW,290,8.1,10.4,43,0.00,CLR,,0.00,WeatherDisplay:10.37,2013-03-21 17:14:00,
2013-03-21 13:19:00,36.7,16.8,29.70,West,265,9.0,11.5,44,0.00,CLR,,0.00,WeatherDisplay:10.37,2013-03-21 17:19:00,
2013-03-21 13:24:00,36.3,15.4,29.70,North,350,7.3,9.2,42,0.00,CLR,,0.00,WeatherDisplay:10.37,2013-03-21 17:24:00,
2013-03-21 13:29:00,37.0,18.1,29.70,NNW,339,8.4,10.4,46,0.00,CLR,,0.00,WeatherDisplay:10.37,2013-03-21 17:29:00,
2013-03-21 13:34:00,37.6,17.6,29.69,NNW,344,5.6,8.1,44,0.00,CLR,,0.00,WeatherDisplay:10.37,2013-03-21 17:34:00,
2013-03-21 13:39:00,37.3,17.9,29.69,NNE,14,6.1,7.0,45,0.00,CLR,,0.00,WeatherDisplay:10.37,2013-03-21 17:39:00,
2013-03-21 13:44:00,38.0,19.0,29.69,NNW,327,7.8,11.5,46,0.00,CLR,,0.00,WeatherDisplay:10.37,2013-03-21 17:44:00,
2013-03-21 13:49:00,38.4,19.4,29.69,NW,306,6.7,11.5,46,0.00,CLR,,0.00,WeatherDisplay:10.37,2013-03-21 17:49:00,
2013-03-21 13:54:00,38.2,17.1,29.69,WSW,257,5.8,9.2,42,0.00,CLR,,0.00,WeatherDisplay:10.37,2013-03-21 17:54:00,
2013-03-21 13:59:00,37.7,19.3,29.68,NNW,339,12.3,16.1,47,0.00,CLR,,0.00,WeatherDisplay:10.37,2013-03-21 17:59:00,
2013-03-21 14:04:00,37.7,18.2,29.68,NNW,333,8.9,12.7,45,0.00,CLR,,0.00,WeatherDisplay:10.37,2013-03-21 18:04:00,
2013-03-21 14:09:00,37.7,18.8,29.68,NW,323,8.9,11.5,46,0.00,CLR,,0.00,WeatherDisplay:10.37,2013-03-21 18:09:00,
2013-03-21 14:14:00,38.0,19.0,29.68,NW,324,4.6,12.0,46,0.00,CLR,,0.00,WeatherDisplay:10.37,2013-03-21 18:14:00,
2013-03-21 14:19:00,38.5,20.0,29.68,NW,308,8.5,12.0,47,0.00,CLR,,0.00,WeatherDisplay:10.37,2013-03-21 18:19:00,
2013-03-21 14:24:00,38.3,18.3,29.67,NNW,331,7.2,11.5,44,0.00,CLR,,0.00,WeatherDisplay:10.37,2013-03-21 18:24:00,
2013-03-21 14:29:00,37.9,17.9,29.67,NNW,332,4.5,8.1,44,0.00,CLR,,0.00,WeatherDisplay:10.37,2013-03-21 18:29:00,
2013-03-21 14:34:00,38.3,19.3,29.67,WNW,293,9.0,11.5,46,0.00,CLR,,0.00,WeatherDisplay:10.37,2013-03-21 18:34:00,
2013-03-21 14:39:00,38.5,19.0,29.67,WNW,300,9.9,11.5,45,0.00,CLR,,0.00,WeatherDisplay:10.37,2013-03-21 18:39:00,
2013-03-21 14:44:00,38.4,18.4,29.66,NW,324,8.8,12.7,44,0.00,CLR,,0.00,WeatherDisplay:10.37,2013-03-21 18:44:00,
2013-03-21 14:49:00,38.4,17.8,29.66,NNW,347,5.0,6.9,43,0.00,CLR,,0.00,WeatherDisplay:10.37,2013-03-21 18:49:00,
2013-03-21 14:54:00,38.6,18.0,29.66,WNW,303,8.3,10.4,43,0.00,CLR,,0.00,WeatherDisplay:10.37,2013-03-21 18:54:00,
2013-03-21 14:59:00,37.9,15.7,29.66,WNW,285,5.4,6.9,40,0.00,CLR,,0.00,WeatherDisplay:10.37,2013-03-21 18:59:00,
2013-03-21 15:04:00,37.8,17.8,29.65,NNW,342,7.8,10.4,44,0.00,CLR,,0.00,WeatherDisplay:10.37,2013-03-21 19:04:00,
2013-03-21 15:09:00,37.7,16.1,29.65,WNW,287,7.7,12.7,41,0.00,CLR,,0.00,WeatherDisplay:10.37,2013-03-21 19:09:00,
2013-03-21 15:14:00,37.2,17.3,29.65,NW,304,5.4,9.2,44,0.00,CLR,,0.00,WeatherDisplay:10.37,2013-03-21 19:14:00,
2013-03-21 15:19:00,37.1,15.5,29.65,WNW,288,5.5,5.8,41,0.00,CLR,,0.00,WeatherDisplay:10.37,2013-03-21 19:19:00,
2013-03-21 15:24:00,36.7,16.3,29.65,NW,309,5.3,6.9,43,0.00,CLR,,0.00,WeatherDisplay:10.37,2013-03-21 19:24:00,
2013-03-21 15:29:00,36.5,15.6,29.65,WNW,294,8.5,13.8,42,0.00,CLR,,0.00,WeatherDisplay:10.37,2013-03-21 19:29:00,
2013-03-21 15:34:00,36.6,15.6,29.65,WNW,286,7.4,11.5,42,0.00,CLR,,0.00,WeatherDisplay:10.37,2013-03-21 19:34:00,
2013-03-21 15:39:00,37.1,16.1,29.65,NW,308,11.5,11.5,42,0.00,CLR,,0.00,WeatherDisplay:10.37,2013-03-21 19:39:00,
2013-03-21 15:44:00,37.3,15.2,29.65,WNW,300,9.7,12.7,40,0.00,CLR,,0.00,WeatherDisplay:10.37,2013-03-21 19:44:00,
2013-03-21 15:49:00,37.9,15.7,29.64,West,273,6.5,11.0,40,0.00,CLR,,0.00,WeatherDisplay:10.37,2013-03-21 19:49:00,
2013-03-21 15:54:00,38.1,17.0,29.64,WNW,289,5.1,11.5,42,0.00,CLR,,0.00,WeatherDisplay:10.37,2013-03-21 19:54:00,
2013-03-21 15:59:00,39.0,16.7,29.64,NW,312,4.8,6.9,40,0.00,CLR,,0.00,WeatherDisplay:10.37,2013-03-21 19:59:00,
2013-03-21 16:04:00,39.1,15.6,29.64,NNW,332,7.7,9.2,38,0.00,CLR,,0.00,WeatherDisplay:10.37,2013-03-21 20:04:00,
2013-03-21 16:09:00,39.8,17.4,29.63,WSW,249,6.9,8.1,40,0.00,CLR,,0.00,WeatherDisplay:10.37,2013-03-21 20:09:00,
2013-03-21 16:14:00,38.9,16.0,29.64,NW,321,6.3,11.5,39,0.00,CLR,,0.00,WeatherDisplay:10.37,2013-03-21 20:14:00,
2013-03-21 16:19:00,38.2,16.0,29.64,NNW,331,13.4,17.3,40,0.00,CLR,,0.00,WeatherDisplay:10.37,2013-03-21 20:19:00,
2013-03-21 16:24:00,37.3,14.6,29.64,NNW,330,6.6,9.2,39,0.00,CLR,,0.00,WeatherDisplay:10.37,2013-03-21 20:24:00,
2013-03-21 16:29:00,37.0,16.0,29.64,NW,326,8.1,17.3,42,0.00,CLR,,0.00,WeatherDisplay:10.37,2013-03-21 20:29:00,
2013-03-21 16:34:00,36.9,15.9,29.64,WNW,296,11.0,17.3,42,0.00,CLR,,0.00,WeatherDisplay:10.37,2013-03-21 20:34:00,
2013-03-21 16:39:00,36.3,14.3,29.64,WNW,288,9.2,13.8,40,0.00,CLR,,0.00,WeatherDisplay:10.37,2013-03-21 20:39:00,
2013-03-21 16:44:00,36.1,15.2,29.64,West,280,7.8,10.4,42,0.00,CLR,,0.00,WeatherDisplay:10.37,2013-03-21 20:44:00,
2013-03-21 16:49:00,35.9,15.0,29.65,WNW,287,9.9,11.0,42,0.00,CLR,,0.00,WeatherDisplay:10.37,2013-03-21 20:49:00,
2013-03-21 16:54:00,35.6,15.3,29.65,NW,306,7.4,13.8,43,0.00,CLR,,0.00,WeatherDisplay:10.37,2013-03-21 20:54:00,
2013-03-21 16:59:00,35.2,14.9,29.65,WNW,293,8.3,11.5,43,0.00,CLR,,0.00,WeatherDisplay:10.37,2013-03-21 20:59:00,
2013-03-21 17:05:00,35.1,16.4,29.65,NW,305,8.6,11.5,46,0.00,CLR,,0.00,WeatherDisplay:10.37,2013-03-21 21:05:00,
2013-03-21 17:10:00,35.2,17.0,29.65,WSW,254,7.9,10.4,47,0.00,CLR,,0.00,WeatherDisplay:10.37,2013-03-21 21:10:00,
2013-03-21 17:15:00,35.5,16.2,29.65,NW,304,7.5,12.7,45,0.00,CLR,,0.00,WeatherDisplay:10.37,2013-03-21 21:15:00,
2013-03-21 17:20:00,36.3,15.9,29.65,West,265,8.6,10.4,43,0.00,CLR,,0.00,WeatherDisplay:10.37,2013-03-21 21:20:00,
2013-03-21 17:25:00,36.3,15.4,29.65,West,280,9.5,15.0,42,0.00,CLR,,0.00,WeatherDisplay:10.37,2013-03-21 21:25:00,
2013-03-21 17:30:00,36.4,15.5,29.65,West,259,6.4,10.4,42,0.00,CLR,,0.00,WeatherDisplay:10.37,2013-03-21 21:30:00,
2013-03-21 17:35:00,35.9,15.0,29.66,West,269,7.4,11.5,42,0.00,CLR,,0.00,WeatherDisplay:10.37,2013-03-21 21:35:00,
2013-03-21 17:50:00,36.0,16.0,29.66,WNW,289,8.0,14.0,44,0.00,,,0.00,weatherlink.com 1.10,2013-03-21 21:50:00,
2013-03-21 18:05:00,34.6,15.0,29.67,WNW,295,11.0,12.0,45,0.00,,,0.00,weatherlink.com 1.10,2013-03-21 22:05:00,
2013-03-21 18:20:00,34.5,16.0,29.67,West,267,13.0,18.0,46,0.00,,,0.00,weatherlink.com 1.10,2013-03-21 22:20:00,
2013-03-21 18:35:00,33.4,17.0,29.68,North,350,14.0,20.0,51,0.00,,,0.00,weatherlink.com 1.10,2013-03-21 22:35:00,
2013-03-21 18:50:00,32.5,19.0,29.69,North,351,6.0,15.0,57,0.00,,,0.00,weatherlink.com 1.10,2013-03-21 22:50:00,
2013-03-21 19:05:00,32.0,17.0,29.70,West,281,8.0,15.0,55,0.00,,,0.00,weatherlink.com 1.10,2013-03-21 23:05:00,
2013-03-21 19:20:00,31.0,17.0,29.70,West,272,5.0,13.0,57,0.00,,,0.00,weatherlink.com 1.10,2013-03-21 23:20:00,
2013-03-21 19:35:00,30.3,17.0,29.70,West,281,4.0,9.0,59,0.00,,,0.00,weatherlink.com 1.10,2013-03-21 23:35:00,
2013-03-21 19:50:00,30.2,17.0,29.71,West,281,7.0,15.0,59,0.00,,,0.00,weatherlink.com 1.10,2013-03-21 23:50:00,
2013-03-21 20:05:00,30.3,17.0,29.71,West,267,5.0,11.0,59,0.00,,,0.00,weatherlink.com 1.10,2013-03-22 00:05:00,
2013-03-21 20:20:00,29.9,17.0,29.72,West,279,4.0,12.0,59,0.00,,,0.00,weatherlink.com 1.10,2013-03-22 00:20:00,
2013-03-21 20:35:00,29.8,17.0,29.72,West,279,6.0,12.0,60,0.00,,,0.00,weatherlink.com 1.10,2013-03-22 00:35:00,
2013-03-21 20:50:00,29.7,16.0,29.73,WNW,287,5.0,13.0,58,0.00,,,0.00,weatherlink.com 1.10,2013-03-22 00:50:00,
2013-03-21 21:06:00,29.5,17.0,29.73,WNW,287,5.0,11.0,59,0.00,,,0.00,weatherlink.com 1.10,2013-03-22 01:06:00,
2013-03-21 21:21:00,29.2,17.0,29.74,West,277,3.0,10.0,60,0.00,,,0.00,weatherlink.com 1.10,2013-03-22 01:21:00,
2013-03-21 21:36:00,28.9,17.0,29.74,WNW,284,5.0,8.0,61,0.00,,,0.00,weatherlink.com 1.10,2013-03-22 01:36:00,
2013-03-21 22:06:00,28.2,16.0,29.75,NW,311,5.0,9.0,61,0.00,,,0.00,weatherlink.com 1.10,2013-03-22 02:06:00,
2013-03-21 22:21:00,27.9,16.0,29.75,West,275,2.0,5.0,62,0.00,,,0.00,weatherlink.com 1.10,2013-03-22 02:21:00,
2013-03-21 22:36:00,27.9,16.0,29.75,West,281,2.0,8.0,62,0.00,,,0.00,weatherlink.com 1.10,2013-03-22 02:36:00,
2013-03-21 22:51:00,27.5,16.0,29.74,West,280,1.0,7.0,63,0.00,,,0.00,weatherlink.com 1.10,2013-03-22 02:51:00,